createdAt,value
2018-07-27T00:00:30.259Z,22.06
2018-07-27T00:02:57.512Z,22.08
2018-07-27T00:05:24.664Z,22.07
2018-07-27T00:07:51.837Z,22.10
2018-07-27T00:10:19.037Z,22.24
2018-07-27T00:12:46.224Z,22.18
2018-07-27T00:15:13.781Z,21.93
2018-07-27T00:17:41.265Z,20.92
2018-07-27T00:20:08.497Z,21.19
2018-07-27T00:22:35.913Z,21.21
2018-07-27T00:25:04.472Z,21.35
2018-07-27T00:27:31.651Z,21.49
2018-07-27T00:29:58.754Z,21.36
2018-07-27T00:32:26.015Z,21.49
2018-07-27T00:34:53.191Z,21.62
2018-07-27T00:37:20.496Z,21.53
2018-07-27T00:39:47.799Z,21.40
2018-07-27T00:42:14.956Z,21.48
2018-07-27T00:44:42.099Z,21.16
2018-07-27T00:47:09.263Z,20.89
2018-07-27T00:49:36.397Z,20.66
2018-07-27T00:52:03.520Z,20.71
2018-07-27T00:54:30.671Z,20.85
2018-07-27T00:56:57.839Z,20.81
2018-07-27T00:59:25.237Z,21.01
2018-07-27T01:01:52.388Z,20.96
2018-07-27T01:04:19.544Z,20.73
2018-07-27T01:06:53.513Z,20.01
2018-07-27T01:09:20.640Z,19.94
2018-07-27T01:11:47.821Z,19.98
2018-07-27T01:14:14.987Z,20.31
2018-07-27T01:16:42.160Z,20.26
2018-07-27T01:19:09.233Z,20.40
2018-07-27T01:21:36.389Z,20.48
2018-07-27T01:24:03.556Z,20.40
2018-07-27T01:26:30.708Z,20.23
2018-07-27T01:28:57.860Z,20.12
2018-07-27T01:31:25.003Z,20.11
2018-07-27T01:33:52.472Z,20.27
2018-07-27T01:36:19.635Z,20.26
2018-07-27T01:38:46.775Z,20.30
2018-07-27T01:41:13.937Z,19.56
2018-07-27T01:43:41.115Z,19.64
2018-07-27T01:46:08.280Z,19.76
2018-07-27T01:48:35.427Z,20.00
2018-07-27T01:51:03.599Z,19.84
2018-07-27T01:53:30.828Z,19.44
2018-07-27T01:55:58.006Z,19.30
2018-07-27T01:58:25.237Z,19.65
2018-07-27T02:00:52.484Z,19.82
2018-07-27T02:03:19.643Z,19.68
2018-07-27T02:05:46.787Z,19.38
2018-07-27T02:08:13.880Z,18.94
2018-07-27T02:10:41.079Z,18.44
2018-07-27T02:13:08.285Z,18.68
2018-07-27T02:15:35.413Z,18.41
2018-07-27T02:18:02.613Z,18.86
2018-07-27T02:20:29.783Z,19.00
2018-07-27T02:22:56.876Z,19.07
2018-07-27T02:25:24.065Z,19.44
2018-07-27T02:27:51.206Z,19.56
2018-07-27T02:30:18.360Z,19.46
2018-07-27T02:32:45.500Z,19.50
2018-07-27T02:35:12.635Z,19.62
2018-07-27T02:37:39.750Z,19.57
2018-07-27T02:42:33.500Z,19.76
2018-07-27T02:45:00.679Z,19.54
2018-07-27T02:47:27.837Z,18.75
2018-07-27T02:49:54.908Z,18.48
2018-07-27T02:52:22.030Z,18.20
2018-07-27T02:54:49.171Z,18.11
2018-07-27T02:57:16.313Z,18.08
2018-07-27T02:59:43.745Z,18.08
2018-07-27T03:02:10.944Z,18.66
2018-07-27T03:04:38.060Z,18.70
2018-07-27T03:07:05.245Z,18.78
2018-07-27T03:09:32.481Z,17.99
2018-07-27T03:11:59.662Z,18.00
2018-07-27T03:14:26.806Z,18.02
2018-07-27T03:16:53.940Z,18.46
2018-07-27T03:19:21.044Z,18.36
2018-07-27T03:21:48.161Z,18.27
2018-07-27T03:24:15.320Z,18.42
2018-07-27T03:26:42.475Z,18.73
2018-07-27T03:29:09.625Z,18.40
2018-07-27T03:31:36.728Z,17.97
2018-07-27T03:34:03.877Z,17.94
2018-07-27T03:36:31.064Z,17.52
2018-07-27T03:38:58.217Z,17.41
2018-07-27T03:41:25.361Z,17.63
2018-07-27T03:43:52.537Z,17.94
2018-07-27T03:46:19.741Z,18.24
2018-07-27T03:48:46.900Z,18.49
2018-07-27T03:51:14.026Z,18.25
2018-07-27T03:53:41.193Z,18.48
2018-07-27T03:56:08.382Z,18.55
2018-07-27T03:58:35.517Z,18.29
2018-07-27T04:01:02.676Z,18.23
2018-07-27T04:03:29.839Z,17.79
2018-07-27T04:05:56.971Z,18.04
2018-07-27T04:08:24.413Z,18.35
2018-07-27T04:10:51.603Z,18.37
2018-07-27T04:13:18.768Z,18.13
2018-07-27T04:15:45.924Z,18.35
2018-07-27T04:18:13.072Z,18.25
2018-07-27T04:20:40.195Z,18.39
2018-07-27T04:23:07.313Z,18.49
2018-07-27T04:25:34.441Z,18.54
2018-07-27T04:28:01.580Z,18.54
2018-07-27T04:30:28.709Z,18.40
2018-07-27T04:32:55.864Z,18.21
2018-07-27T04:35:23.012Z,18.24
2018-07-27T04:37:50.212Z,18.56
2018-07-27T04:40:17.337Z,18.73
2018-07-27T04:42:44.468Z,18.74
2018-07-27T04:45:11.632Z,18.80
2018-07-27T04:47:38.864Z,18.82
2018-07-27T04:50:07.202Z,19.04
2018-07-27T04:52:34.360Z,19.11
2018-07-27T04:55:01.498Z,19.22
2018-07-27T04:57:28.636Z,18.95
2018-07-27T04:59:55.799Z,18.71
2018-07-27T05:02:22.952Z,18.38
2018-07-27T05:04:50.148Z,18.32
2018-07-27T05:07:17.352Z,18.39
2018-07-27T05:09:44.453Z,18.66
2018-07-27T05:12:11.606Z,18.90
2018-07-27T05:14:38.775Z,19.33
2018-07-27T05:17:05.912Z,19.57
2018-07-27T05:19:33.070Z,19.46
2018-07-27T05:22:00.237Z,19.23
2018-07-27T05:24:27.461Z,19.44
2018-07-27T05:26:54.608Z,19.28
2018-07-27T05:29:21.801Z,19.28
2018-07-27T05:31:49.035Z,19.49
2018-07-27T05:34:16.155Z,19.87
2018-07-27T05:36:43.319Z,20.17
2018-07-27T05:39:11.574Z,20.46
2018-07-27T05:41:38.673Z,20.32
2018-07-27T05:44:05.948Z,20.37
2018-07-27T05:46:33.096Z,20.30
2018-07-27T05:49:00.256Z,20.62
2018-07-27T05:51:27.480Z,20.81
2018-07-27T05:53:54.584Z,21.13
2018-07-27T05:56:21.772Z,21.30
2018-07-27T05:58:48.937Z,21.52
2018-07-27T06:01:16.140Z,21.80
2018-07-27T06:03:43.244Z,22.05
2018-07-27T06:06:10.414Z,22.14
2018-07-27T06:08:37.786Z,22.28
2018-07-27T06:11:04.911Z,22.13
2018-07-27T06:13:32.086Z,22.20
2018-07-27T06:15:59.224Z,22.55
2018-07-27T06:18:26.360Z,22.96
2018-07-27T06:20:53.665Z,23.37
2018-07-27T06:23:20.833Z,23.26
2018-07-27T06:25:48.020Z,23.33
2018-07-27T06:28:15.240Z,23.27
2018-07-27T06:30:42.301Z,23.45
2018-07-27T06:33:09.448Z,23.96
2018-07-27T06:35:36.568Z,24.21
2018-07-27T06:38:03.752Z,24.21
2018-07-27T06:40:30.957Z,24.33
2018-07-27T06:42:58.181Z,24.51
2018-07-27T06:45:25.349Z,24.72
2018-07-27T06:47:52.514Z,25.28
2018-07-27T06:50:19.672Z,25.32
2018-07-27T06:52:46.901Z,25.29
2018-07-27T06:55:14.270Z,25.80
2018-07-27T06:57:41.576Z,26.05
2018-07-27T07:00:08.724Z,25.78
2018-07-27T07:02:35.826Z,25.96
2018-07-27T07:05:03.962Z,26.02
2018-07-27T07:07:31.071Z,26.27
2018-07-27T07:09:58.232Z,26.53
2018-07-27T07:12:25.440Z,26.79
2018-07-27T07:14:52.597Z,26.80
2018-07-27T07:17:19.759Z,26.95
2018-07-27T07:19:46.972Z,27.00
2018-07-27T07:22:14.156Z,27.12
2018-07-27T07:24:41.336Z,27.21
2018-07-27T07:27:08.448Z,27.36
2018-07-27T07:29:35.592Z,27.41
2018-07-27T07:32:02.755Z,27.37
2018-07-27T07:34:29.879Z,27.46
2018-07-27T07:36:57.048Z,27.57
2018-07-27T07:39:24.236Z,27.63
2018-07-27T07:41:51.439Z,27.54
2018-07-27T07:44:18.539Z,27.81
2018-07-27T07:46:45.704Z,27.75
2018-07-27T07:49:12.818Z,27.91
2018-07-27T07:51:40.013Z,28.20
2018-07-27T07:54:07.184Z,28.16
2018-07-27T07:56:34.424Z,28.02
2018-07-27T07:59:01.969Z,28.21
2018-07-27T08:01:29.201Z,28.26
2018-07-27T08:03:56.493Z,28.42
2018-07-27T08:06:23.748Z,28.82
2018-07-27T08:08:50.889Z,28.66
2018-07-27T08:11:18.138Z,28.96
2018-07-27T08:13:45.244Z,29.08
2018-07-27T08:16:12.429Z,29.23
2018-07-27T08:18:39.580Z,29.37
2018-07-27T08:21:06.805Z,29.16
2018-07-27T08:23:33.946Z,29.22
2018-07-27T08:26:36.200Z,29.60
2018-07-27T08:29:03.399Z,29.31
2018-07-27T08:31:30.652Z,29.57
2018-07-27T08:33:58.625Z,29.65
2018-07-27T08:36:25.835Z,29.70
2018-07-27T08:38:53.069Z,29.95
2018-07-27T08:41:20.117Z,30.11
2018-07-27T08:43:47.340Z,30.05
2018-07-27T08:46:14.436Z,29.77
2018-07-27T08:48:41.554Z,30.26
2018-07-27T08:51:08.741Z,30.56
2018-07-27T08:53:36.092Z,30.43
2018-07-27T08:56:06.537Z,30.48
2018-07-27T08:58:33.679Z,30.12
2018-07-27T09:01:01.020Z,29.36
2018-07-27T09:03:28.325Z,28.84
2018-07-27T09:05:55.460Z,29.01
2018-07-27T09:08:22.608Z,29.15
2018-07-27T09:10:49.740Z,29.16
2018-07-27T09:13:16.877Z,28.60
2018-07-27T09:15:43.998Z,28.95
2018-07-27T09:18:11.245Z,28.89
2018-07-27T09:20:38.391Z,28.60
2018-07-27T09:23:06.545Z,28.67
2018-07-27T09:25:33.780Z,28.74
2018-07-27T09:28:00.956Z,28.60
2018-07-27T09:30:29.031Z,28.44
2018-07-27T09:32:56.206Z,28.49
2018-07-27T09:35:23.459Z,28.14
2018-07-27T09:37:50.632Z,28.09
2018-07-27T09:40:17.873Z,28.35
2018-07-27T09:42:45.019Z,28.39
2018-07-27T09:45:12.199Z,28.38
2018-07-27T09:47:39.388Z,28.10
2018-07-27T09:50:06.742Z,28.08
2018-07-27T09:52:34.161Z,27.65
2018-07-27T09:55:01.393Z,27.67
2018-07-27T09:57:28.724Z,27.63
2018-07-27T09:59:55.866Z,27.01
2018-07-27T10:02:23.016Z,27.32
2018-07-27T10:04:50.164Z,27.29
2018-07-27T10:07:17.377Z,27.25
2018-07-27T10:09:44.556Z,27.22
2018-07-27T10:12:11.708Z,26.88
2018-07-27T10:14:39.867Z,26.70
2018-07-27T10:17:07.043Z,26.51
2018-07-27T10:19:34.527Z,26.50
2018-07-27T10:22:01.795Z,26.21
2018-07-27T10:24:29.034Z,26.39
2018-07-27T10:26:56.197Z,26.54
2018-07-27T10:29:23.404Z,26.59
2018-07-27T10:31:50.647Z,26.86
2018-07-27T10:34:17.817Z,27.05
2018-07-27T10:36:45.050Z,27.17
2018-07-27T10:39:12.196Z,27.20
2018-07-27T10:41:39.354Z,27.33
2018-07-27T10:44:06.640Z,27.60
2018-07-27T10:46:33.785Z,27.98
2018-07-27T10:49:00.989Z,28.14
2018-07-27T10:51:28.182Z,28.19
2018-07-27T10:53:55.380Z,28.03
2018-07-27T10:56:22.583Z,28.01
2018-07-27T10:58:50.032Z,28.10
2018-07-27T11:01:17.179Z,28.45
2018-07-27T11:03:44.339Z,28.78
2018-07-27T11:06:11.478Z,28.94
2018-07-27T11:08:38.955Z,29.05
2018-07-27T11:11:06.187Z,28.87
2018-07-27T11:13:33.489Z,29.26
2018-07-27T11:16:00.722Z,29.57
2018-07-27T11:18:27.969Z,29.44
2018-07-27T11:20:55.204Z,29.70
2018-07-27T11:23:22.404Z,29.76
2018-07-27T11:25:49.632Z,29.65
2018-07-27T11:28:16.859Z,30.04
2018-07-27T11:30:44.074Z,30.13
2018-07-27T11:33:11.292Z,30.30
2018-07-27T11:35:38.514Z,30.92
2018-07-27T11:38:05.753Z,31.12
2018-07-27T11:40:32.956Z,31.47
2018-07-27T11:43:00.174Z,31.63
2018-07-27T11:45:27.381Z,31.98
2018-07-27T11:47:54.525Z,32.36
2018-07-27T11:50:21.692Z,32.48
2018-07-27T11:52:48.916Z,31.81
2018-07-27T11:55:16.145Z,31.87
2018-07-27T11:57:43.277Z,32.36
2018-07-27T12:00:10.506Z,31.56
2018-07-27T12:02:38.932Z,30.93
2018-07-27T12:05:06.127Z,31.25
